createdAt,value
2022-10-24T04:38:06.951Z,7.70
2022-10-24T04:40:34.945Z,14.80
2022-10-24T04:43:02.688Z,8.18
2022-10-24T04:45:30.705Z,8.57
2022-10-24T04:47:58.749Z,7.97
2022-10-24T04:50:26.659Z,9.75
2022-10-24T04:52:54.703Z,7.30
2022-10-24T04:55:22.562Z,8.75
2022-10-24T04:57:50.390Z,7.97
2022-10-24T05:00:18.405Z,6.90
2022-10-24T05:02:46.345Z,9.63
2022-10-24T05:05:14.265Z,10.57
2022-10-24T05:07:42.386Z,12.40
2022-10-24T05:10:10.689Z,11.40
2022-10-24T05:12:38.639Z,21.63
2022-10-24T05:15:07.545Z,8.60
2022-10-24T05:17:35.736Z,7.18
2022-10-24T05:20:05.994Z,7.85
2022-10-24T05:22:34.003Z,8.10
2022-10-24T05:25:01.813Z,8.25
2022-10-24T05:27:29.742Z,7.95
2022-10-24T05:29:57.864Z,8.85
2022-10-24T05:32:25.838Z,6.20
2022-10-24T05:34:53.658Z,9.07
2022-10-24T05:37:21.692Z,7.88
2022-10-24T05:39:49.687Z,8.35
2022-10-24T05:42:18.202Z,8.23
2022-10-24T05:44:46.301Z,7.90
2022-10-24T05:47:14.235Z,8.35
2022-10-24T05:49:42.250Z,9.30
2022-10-24T05:52:10.103Z,9.05
2022-10-24T05:54:48.767Z,8.27
2022-10-24T05:57:25.893Z,9.73
2022-10-24T05:59:53.744Z,9.32
2022-10-24T06:02:21.734Z,9.55
2022-10-24T06:04:51.015Z,8.23
2022-10-24T06:07:21.070Z,8.25
2022-10-24T06:09:48.869Z,8.40
2022-10-24T06:12:16.779Z,6.70
2022-10-24T06:14:45.057Z,9.00
2022-10-24T06:17:12.981Z,7.88
2022-10-24T06:19:40.928Z,11.23
2022-10-24T06:22:09.533Z,8.80
2022-10-24T06:24:38.374Z,7.70
2022-10-24T06:27:06.725Z,6.38
2022-10-24T06:29:35.747Z,8.18
2022-10-24T06:32:04.218Z,5.25
2022-10-24T06:34:32.166Z,8.80
2022-10-24T06:37:00.176Z,5.85
2022-10-24T06:39:27.959Z,8.85
2022-10-24T06:41:55.813Z,7.72
2022-10-24T06:44:25.309Z,9.23
2022-10-24T06:46:53.325Z,7.75
2022-10-24T06:49:21.260Z,10.32
2022-10-24T06:51:49.256Z,8.30
2022-10-24T06:54:17.496Z,10.00
2022-10-24T06:56:45.269Z,5.65
2022-10-24T06:59:17.054Z,7.40
2022-10-24T07:01:45.917Z,7.60
2022-10-24T07:04:13.810Z,6.05
2022-10-24T07:06:41.791Z,9.27
2022-10-24T07:09:15.100Z,6.25
2022-10-24T07:11:44.523Z,5.55
2022-10-24T07:14:12.958Z,6.28
2022-10-24T07:16:40.781Z,7.13
2022-10-24T07:19:09.015Z,5.95
2022-10-24T07:21:36.815Z,5.45
2022-10-24T07:24:04.916Z,6.55
2022-10-24T07:26:33.061Z,6.97
2022-10-24T07:31:32.721Z,6.30
2022-10-24T07:34:02.659Z,8.40
2022-10-24T07:36:33.208Z,7.47
2022-10-24T07:39:01.752Z,6.00
2022-10-24T07:41:31.328Z,5.70
2022-10-24T07:44:00.354Z,4.75
2022-10-24T07:46:28.639Z,5.97
2022-10-24T07:48:56.406Z,5.15
2022-10-24T07:51:28.261Z,6.70
2022-10-24T07:53:58.363Z,5.68
2022-10-24T07:56:27.069Z,5.63
2022-10-24T07:58:56.761Z,7.13
2022-10-24T08:01:26.234Z,5.15
2022-10-24T08:03:54.781Z,4.15
2022-10-24T08:06:25.746Z,5.03
2022-10-24T08:08:53.652Z,5.43
2022-10-24T08:11:23.802Z,4.97
2022-10-24T08:13:52.785Z,5.65
2022-10-24T08:16:22.350Z,7.90
2022-10-24T08:18:51.424Z,6.07
2022-10-24T08:21:20.478Z,4.95
2022-10-24T08:23:50.268Z,5.07
2022-10-24T08:26:20.300Z,4.30
2022-10-24T08:28:48.354Z,4.70
2022-10-24T08:31:19.626Z,6.22
2022-10-24T08:33:48.494Z,4.03
2022-10-24T08:36:28.961Z,5.15
2022-10-24T08:38:57.178Z,5.15
2022-10-24T08:41:30.813Z,3.25
2022-10-24T08:44:00.520Z,4.55
2022-10-24T08:46:50.951Z,4.55
2022-10-24T08:49:36.980Z,3.38
2022-10-24T08:52:19.369Z,2.97
2022-10-24T08:54:47.424Z,4.72
2022-10-24T08:57:28.283Z,5.55
2022-10-24T08:59:59.815Z,4.22
2022-10-24T09:02:32.071Z,5.38
2022-10-24T09:05:03.635Z,5.22
2022-10-24T09:07:31.535Z,5.05
2022-10-24T09:10:14.736Z,4.20
2022-10-24T09:12:42.524Z,4.90
2022-10-24T09:15:23.517Z,4.18
2022-10-24T09:17:51.709Z,3.05
2022-10-24T09:20:22.361Z,5.05
2022-10-24T09:22:50.388Z,9.55
2022-10-24T09:25:23.068Z,3.55
2022-10-24T09:27:51.394Z,6.03
2022-10-24T09:30:30.096Z,4.13
2022-10-24T09:33:12.950Z,5.72
2022-10-24T09:35:40.901Z,3.30
2022-10-24T09:38:25.632Z,6.82
2022-10-24T09:40:56.022Z,6.10
2022-10-24T09:43:32.964Z,4.93
2022-10-24T09:46:26.912Z,6.18
2022-10-24T09:51:45.539Z,5.88
2022-10-24T09:54:19.431Z,4.13
2022-10-24T09:56:52.246Z,5.50
2022-10-24T09:59:28.554Z,5.50
2022-10-24T10:02:19.757Z,8.90
2022-10-24T10:04:49.194Z,5.70
2022-10-24T10:07:20.747Z,5.47
2022-10-24T10:09:56.719Z,4.78
2022-10-24T10:12:39.832Z,11.02
2022-10-24T10:15:35.964Z,4.38
2022-10-24T10:18:26.504Z,3.47
2022-10-24T10:21:10.933Z,6.55
2022-10-24T10:23:47.497Z,6.05
2022-10-24T10:26:43.546Z,5.80
2022-10-24T10:29:17.316Z,5.63
2022-10-24T10:31:48.233Z,4.05
2022-10-24T10:34:20.490Z,5.05
2022-10-24T10:37:15.707Z,7.20
2022-10-24T10:40:16.986Z,3.45
2022-10-24T10:43:23.245Z,4.22
2022-10-24T10:46:07.176Z,8.27
2022-10-24T10:48:50.072Z,8.02
2022-10-24T10:51:29.848Z,4.82
2022-10-24T10:54:03.686Z,6.60
2022-10-24T10:56:40.916Z,4.68
2022-10-24T10:59:35.293Z,4.38
2022-10-24T11:02:40.528Z,5.70
2022-10-24T11:05:29.114Z,3.50
2022-10-24T11:08:06.202Z,6.50
2022-10-24T11:11:12.853Z,4.22
2022-10-24T11:13:53.499Z,5.72
2022-10-24T11:16:26.411Z,4.10
2022-10-24T11:19:16.516Z,3.95
2022-10-24T11:21:45.142Z,7.32
2022-10-24T11:24:18.104Z,4.20
2022-10-24T11:29:45.173Z,3.53
2022-10-24T11:32:34.065Z,4.20
2022-10-24T11:35:34.550Z,5.32
2022-10-24T11:38:14.832Z,4.32
2022-10-24T11:40:45.283Z,5.68
2022-10-24T11:43:27.402Z,4.10
2022-10-24T11:46:09.658Z,3.78
2022-10-24T11:48:41.337Z,6.03
2022-10-24T11:51:33.914Z,4.88
2022-10-24T12:17:03.596Z,6.32
2022-10-24T12:19:32.436Z,4.60
2022-10-24T12:22:02.523Z,9.32
2022-10-24T12:24:39.080Z,16.73
2022-10-24T12:27:30.910Z,16.25
2022-10-24T12:30:10.906Z,11.55
2022-10-24T12:32:42.935Z,9.50
2022-10-24T12:35:53.065Z,9.40
2022-10-24T12:38:29.872Z,6.75
2022-10-24T12:41:32.240Z,8.35
2022-10-24T12:44:24.518Z,11.13
2022-10-24T12:49:34.882Z,6.28
2022-10-24T12:52:31.176Z,9.25
2022-10-24T12:54:59.737Z,12.20
2022-10-24T12:57:37.867Z,9.68
2022-10-24T13:00:23.597Z,8.27
2022-10-24T13:03:05.965Z,7.63
2022-10-24T13:08:18.042Z,6.50
2022-10-24T13:11:02.605Z,7.88
2022-10-24T13:13:55.088Z,4.90
2022-10-24T13:18:57.091Z,5.70
2022-10-24T13:21:46.881Z,10.95
2022-10-24T13:24:16.271Z,5.95
2022-10-24T13:27:13.311Z,4.25
2022-10-24T13:29:43.462Z,6.90
2022-10-24T13:32:11.300Z,6.05
2022-10-24T13:34:42.068Z,5.03
2022-10-24T13:37:09.818Z,6.40
2022-10-24T13:39:42.584Z,7.55
2022-10-24T13:42:27.636Z,5.93
2022-10-24T13:45:01.562Z,6.15
2022-10-24T13:47:35.516Z,7.78
2022-10-24T13:50:15.424Z,5.05
2022-10-24T13:52:49.150Z,4.88
2022-10-24T13:55:29.968Z,8.30
2022-10-24T13:58:12.179Z,7.68
2022-10-24T14:00:42.727Z,5.95
2022-10-24T14:03:22.250Z,5.88
2022-10-24T14:05:53.986Z,5.72
2022-10-24T14:08:27.067Z,6.80
2022-10-24T14:10:55.504Z,6.63
2022-10-24T14:13:24.634Z,5.60
2022-10-24T14:15:55.458Z,5.25
2022-10-24T14:18:23.449Z,8.05
2022-10-24T14:20:54.149Z,6.30
2022-10-24T14:23:36.920Z,5.65
2022-10-24T14:26:19.977Z,8.75
2022-10-24T14:28:50.894Z,6.90
2022-10-24T14:31:28.168Z,6.68
2022-10-24T14:33:56.403Z,5.82
2022-10-24T14:36:26.371Z,6.50
2022-10-24T14:38:57.831Z,7.38
2022-10-24T14:41:33.999Z,4.97
2022-10-24T14:44:02.014Z,7.38
2022-10-24T14:46:35.502Z,5.28
2022-10-24T14:49:28.076Z,9.45
2022-10-24T14:54:31.863Z,4.88
2022-10-24T14:57:01.701Z,5.15
2022-10-24T14:59:35.755Z,3.78
2022-10-24T15:02:22.114Z,6.47
2022-10-24T15:04:52.112Z,4.22
2022-10-24T15:07:22.700Z,4.93
2022-10-24T15:09:58.725Z,5.47
2022-10-24T15:12:31.292Z,6.22
2022-10-24T15:15:22.516Z,6.55
2022-10-24T15:17:59.024Z,6.18
2022-10-24T15:20:28.715Z,4.53
2022-10-24T15:22:59.105Z,5.15
2022-10-24T15:25:31.039Z,15.48
2022-10-24T15:28:02.157Z,15.73
2022-10-24T15:30:37.160Z,26.98
2022-10-24T15:33:06.470Z,20.50
2022-10-24T15:35:39.889Z,17.60
2022-10-24T15:38:15.608Z,21.27
2022-10-24T15:40:46.038Z,14.95
2022-10-24T15:43:18.923Z,18.02
2022-10-24T15:45:47.392Z,13.75
2022-10-24T15:48:15.216Z,17.50
2022-10-24T15:50:44.945Z,15.00
2022-10-24T15:53:18.005Z,13.55
2022-10-24T15:55:46.189Z,18.50
2022-10-24T15:58:15.231Z,20.10
2022-10-24T16:00:43.102Z,14.52
2022-10-24T16:03:14.949Z,12.52
2022-10-24T16:05:45.031Z,10.27
2022-10-24T16:08:15.273Z,16.20
2022-10-24T16:10:43.751Z,18.45
2022-10-24T16:13:15.781Z,13.13
2022-10-24T16:15:44.043Z,12.55
2022-10-24T16:18:12.275Z,12.32
2022-10-24T16:20:41.192Z,11.18
2022-10-24T16:23:10.571Z,11.77
2022-10-24T16:25:38.690Z,11.25
2022-10-24T16:28:08.244Z,13.10
2022-10-24T16:30:37.832Z,12.57
2022-10-24T16:33:05.946Z,11.45
2022-10-24T16:35:35.657Z,9.98
2022-10-24T16:38:04.581Z,14.13
2022-10-24T16:40:33.019Z,13.07
2022-10-24T16:43:02.230Z,12.30
2022-10-24T16:45:30.396Z,10.60
2022-10-24T16:47:58.487Z,10.82
2022-10-24T16:50:28.892Z,13.02
2022-10-24T16:53:00.548Z,11.73
2022-10-24T16:55:28.741Z,11.40
2022-10-24T16:57:57.194Z,11.90
2022-10-24T17:00:25.620Z,11.60
2022-10-24T17:02:55.423Z,11.05
2022-10-24T17:05:25.618Z,9.25
2022-10-24T17:07:54.482Z,9.45
2022-10-24T17:10:24.701Z,10.77
2022-10-24T17:12:53.264Z,10.02
2022-10-24T17:15:22.417Z,11.98
2022-10-24T17:17:50.848Z,9.57
2022-10-24T17:20:18.619Z,13.05
2022-10-24T17:22:46.982Z,12.23
2022-10-24T17:25:21.586Z,9.50
2022-10-24T17:27:50.012Z,13.57
2022-10-24T17:30:20.585Z,12.20
2022-10-24T17:32:49.350Z,9.90
2022-10-24T17:35:20.838Z,8.65
2022-10-24T17:38:09.616Z,9.73
2022-10-24T17:40:46.327Z,10.65
2022-10-24T17:43:20.700Z,10.85
2022-10-24T17:45:49.072Z,10.10
2022-10-24T17:48:17.545Z,11.52
2022-10-24T17:50:45.951Z,10.40
2022-10-24T17:53:15.439Z,9.57
2022-10-24T17:55:47.738Z,8.88
2022-10-24T17:58:16.933Z,10.70
2022-10-24T18:00:45.224Z,10.10
2022-10-24T18:03:14.899Z,10.63
2022-10-24T18:05:42.733Z,9.60
2022-10-24T18:08:11.544Z,9.45
2022-10-24T18:10:40.275Z,8.20
2022-10-24T18:13:08.611Z,8.73
2022-10-24T18:15:36.945Z,11.93
2022-10-24T18:18:05.508Z,11.82
2022-10-24T18:20:33.586Z,8.88
2022-10-24T18:23:01.632Z,8.82
2022-10-24T18:25:29.723Z,9.23
2022-10-24T18:27:57.694Z,11.32
2022-10-24T18:30:27.467Z,11.00
2022-10-24T18:32:55.152Z,10.10
2022-10-24T18:35:23.050Z,11.77
